Sakura — JG5711 — position and weather

sailwx.info

Track history (hours):
 
Tides and Currents Weather Stations Pressure Air Temp Water Temp Dewpoint Dewpoint Depression Visibility Wind Speed Wind Dir Waves Ship Positions

Sakura

Last reported at 2016-May-02 07:34 UTC. Time now 2016-May-02 08:19 UTC.
Position N 35°27' E 139°40'.

Length 32 m; draft 3.6 m.

Type: Tug. MMSI: 431101178.

Date/timePositionNaut miles runAvg speedWind from/ knotsBaromVisibWave heightAir tempDewpointWater temp
2016-May-02 07:34N 35°27' E 139°40'0 0.0
2016-May-02 06:34N 35°27' E 139°40'0 0.0
2016-May-02 05:33N 35°27' E 139°40'0 0.0
2016-May-02 04:34N 35°27' E 139°40'0 0.0
2016-May-02 03:34N 35°27' E 139°40'0 0.0
2016-May-02 02:34N 35°27' E 139°40'0 0.0
2016-May-02 01:34N 35°27' E 139°40'0 0.0
2016-May-02 00:34N 35°27' E 139°40'0 0.2
2016-May-01 23:34N 35°27' E 139°39'2 2.3
2016-May-01 22:34N 35°26' E 139°42'2 2.1
2016-May-01 21:34N 35°27' E 139°40'0 0.0
2016-Apr-29 22:34N 35°27' E 139°40'1 0.6
2016-Apr-29 21:33N 35°27' E 139°40'1 0.8
2016-Apr-29 20:33N 35°27' E 139°40'1 0.9
2016-Apr-29 19:33N 35°27' E 139°39'0 0.0
2016-Apr-29 18:34N 35°27' E 139°39'0 0.0
2016-Apr-29 17:34N 35°27' E 139°39'0 0.0
2016-Apr-29 16:34N 35°27' E 139°39'2 1.5
2016-Apr-29 15:33N 35°27' E 139°41'1 0.7
2016-Apr-29 14:34N 35°27' E 139°41'2 2.4
2016-Apr-29 13:34N 35°25' E 139°43'3 3.3
2016-Apr-29 12:34N 35°27' E 139°39'0 0.0
2016-Apr-29 11:34N 35°27' E 139°39'0 0.0
2016-Apr-29 10:34N 35°27' E 139°39'0 0.1
2016-Apr-29 09:34N 35°27' E 139°39'1 1.2
2016-Apr-29 08:34N 35°27' E 139°41'0 0.2
2016-Apr-29 07:34N 35°27' E 139°41'1 0.5
2016-Apr-29 06:34N 35°27' E 139°41'0 0.3
2016-Apr-29 05:34N 35°27' E 139°41'2 2.3
2016-Apr-29 04:33N 35°27' E 139°39'0 0.0
2016-Apr-29 03:33N 35°27' E 139°39'0 0.0
2016-Apr-29 02:33N 35°27' E 139°39'0 0.0
2016-Apr-29 01:34N 35°27' E 139°39'0 0.0
2016-Apr-29 00:34N 35°27' E 139°39'0 0.0
2016-Apr-28 23:34N 35°27' E 139°39'7 7.2
2016-Apr-28 22:34N 35°31' E 139°47'4 4.2
2016-Apr-28 21:34N 35°29' E 139°42'3 3.0
2016-Apr-28 20:34N 35°27' E 139°39'0 0.0
2016-Apr-28 07:05N 35°27' E 139°39'0 0.0
2016-Apr-28 06:33N 35°27' E 139°39'0 0.0
2016-Apr-28 05:33N 35°27' E 139°39'0 0.0
2016-Apr-28 04:33N 35°27' E 139°39'0 0.0
2016-Apr-28 03:33N 35°27' E 139°39'0 0.0
2016-Apr-28 02:33N 35°27' E 139°39'0 0.0
2016-Apr-28 01:33N 35°27' E 139°39'0 0.0
2016-Apr-28 00:33N 35°27' E 139°39'3 2.9
2016-Apr-27 23:33N 35°28' E 139°42'1 1.2
2016-Apr-27 22:33N 35°29' E 139°43'3 3.3
2016-Apr-27 21:33N 35°27' E 139°46'6 5.9
2016-Apr-27 20:33N 35°27' E 139°39'0 0.0
2016-Apr-27 07:15N 35°27' E 139°39'0 0.0
2016-Apr-27 06:33N 35°27' E 139°39'2 2.4
2016-Apr-27 05:34N 35°27' E 139°41'2 2.3
2016-Apr-27 04:33N 35°27' E 139°39'0 0.2
2016-Apr-27 03:33N 35°27' E 139°39'0 0.0
2016-Apr-27 02:33N 35°27' E 139°39'0 0.0
2016-Apr-27 01:33N 35°27' E 139°39'0 0.0
2016-Apr-27 00:33N 35°27' E 139°39'0 0.0
2016-Apr-26 23:33N 35°27' E 139°39'2 2.1
2016-Apr-26 22:33N 35°26' E 139°41'1 1.5
2016-Apr-26 21:33N 35°27' E 139°42'3 0.2
2016-Apr-26 06:33N 35°27' E 139°39'0 0.0
2016-Apr-26 05:33N 35°27' E 139°39'0 0.0
2016-Apr-26 04:33N 35°27' E 139°39'0 0.0
2016-Apr-26 03:33N 35°27' E 139°39'0 0.0
2016-Apr-26 02:33N 35°27' E 139°39'0 0.0
2016-Apr-26 01:33N 35°27' E 139°39'0 0.0
2016-Apr-26 00:33N 35°27' E 139°39'0 0.0
2016-Apr-25 23:33N 35°27' E 139°39'2 2.3
2016-Apr-25 22:33N 35°27' E 139°41'3 3.3
2016-Apr-25 21:33N 35°29' E 139°45'2 2.1
2016-Apr-25 20:33N 35°27' E 139°46'6 6.1
2016-Apr-25 19:33N 35°27' E 139°39'0 0.0
2016-Apr-25 18:33N 35°27' E 139°39'0 0.0
2016-Apr-25 17:33N 35°27' E 139°39'0 0.0
2016-Apr-25 16:33N 35°27' E 139°39'0 0.0
2016-Apr-25 15:33N 35°27' E 139°39'0 0.0
2016-Apr-25 14:33N 35°27' E 139°39'0 0.0
2016-Apr-25 13:33N 35°27' E 139°39'0 0.0
2016-Apr-25 12:33N 35°27' E 139°39'0 0.0
2016-Apr-25 11:33N 35°27' E 139°39'0 0.0
2016-Apr-25 10:33N 35°27' E 139°39'3 3.1
2016-Apr-25 09:33N 35°26' E 139°42'3 3.1
2016-Apr-25 08:33N 35°27' E 139°39'0 0.0
2016-Apr-25 07:33N 35°27' E 139°39'0 0.0
2016-Apr-25 06:33N 35°27' E 139°39'0 0.0
2016-Apr-25 05:33N 35°27' E 139°39'2 1.9
2016-Apr-25 04:33N 35°28' E 139°41'3 3.2
2016-Apr-25 03:33N 35°27' E 139°44'5 4.7
2016-Apr-25 02:33N 35°27' E 139°39'0 0.0
2016-Apr-25 01:33N 35°27' E 139°39'0 0.0
2016-Apr-25 00:33N 35°27' E 139°39'0 0.0
2016-Apr-24 23:33N 35°27' E 139°39'0 0.0
2016-Apr-24 22:33N 35°27' E 139°39'1 1.3
2016-Apr-24 21:33N 35°29' E 139°39'1 1.3
2016-Apr-24 20:33N 35°27' E 139°39'0 0.0
2016-Apr-24 07:10N 35°27' E 139°39'0 0.0
2016-Apr-24 06:33N 35°27' E 139°39'0 0.0
2016-Apr-24 05:33N 35°27' E 139°39'2 1.5
2016-Apr-24 04:33N 35°27' E 139°40'1 0.9
2016-Apr-24 03:33N 35°28' E 139°41'0 0.0
2016-Apr-24 02:33N 35°28' E 139°41'0 0.0
2016-Apr-24 01:33N 35°28' E 139°41'0 0.0
2016-Apr-24 00:33N 35°28' E 139°41'1 0.6
2016-Apr-23 23:33N 35°27' E 139°41'6 5.7
2016-Apr-23 22:33N 35°31' E 139°46'0 0.2
2016-Apr-23 21:34N 35°31' E 139°46'7 7.1
2016-Apr-23 20:34N 35°27' E 139°39'0 0.0
2016-Apr-23 07:15N 35°28' E 139°39'1 2.0
2016-Apr-23 06:33N 35°27' E 139°40'1 0.9
2016-Apr-23 05:33N 35°27' E 139°39'4 3.7
2016-Apr-23 04:33N 35°28' E 139°44'1 0.6
2016-Apr-23 03:33N 35°28' E 139°44'2 1.8
2016-Apr-23 02:33N 35°26' E 139°45'2 1.8
2016-Apr-23 01:33N 35°27' E 139°42'2 1.7
2016-Apr-23 00:33N 35°25' E 139°42'2 2.2
2016-Apr-22 23:33N 35°24' E 139°40'3 3.4
2016-Apr-22 22:33N 35°27' E 139°39'4 0.3
2016-Apr-22 07:34N 35°27' E 139°43'  
Track history (hours):
 
Tides and Currents Weather Stations Pressure Air Temp Water Temp Dewpoint Dewpoint Depression Visibility Wind Speed Wind Dir Waves Ship Positions

Sakura

Last reported at 2016-May-02 07:34 UTC. Time now 2016-May-02 08:19 UTC.
Position N 35°27' E 139°40'.

Length 32 m; draft 3.6 m.

Type: Tug. MMSI: 431101178.

Date/timePositionNaut miles runAvg speedWind from/ knotsBaromVisibWave heightAir tempDewpointWater temp
2016-May-02 07:34N 35°27' E 139°40'0 0.0
2016-May-02 06:34N 35°27' E 139°40'0 0.0
2016-May-02 05:33N 35°27' E 139°40'0 0.0
2016-May-02 04:34N 35°27' E 139°40'0 0.0
2016-May-02 03:34N 35°27' E 139°40'0 0.0
2016-May-02 02:34N 35°27' E 139°40'0 0.0
2016-May-02 01:34N 35°27' E 139°40'0 0.0
2016-May-02 00:34N 35°27' E 139°40'0 0.2
2016-May-01 23:34N 35°27' E 139°39'2 2.3
2016-May-01 22:34N 35°26' E 139°42'2 2.1
2016-May-01 21:34N 35°27' E 139°40'0 0.0
2016-Apr-29 22:34N 35°27' E 139°40'1 0.6
2016-Apr-29 21:33N 35°27' E 139°40'1 0.8
2016-Apr-29 20:33N 35°27' E 139°40'1 0.9
2016-Apr-29 19:33N 35°27' E 139°39'0 0.0
2016-Apr-29 18:34N 35°27' E 139°39'0 0.0
2016-Apr-29 17:34N 35°27' E 139°39'0 0.0
2016-Apr-29 16:34N 35°27' E 139°39'2 1.5
2016-Apr-29 15:33N 35°27' E 139°41'1 0.7
2016-Apr-29 14:34N 35°27' E 139°41'2 2.4
2016-Apr-29 13:34N 35°25' E 139°43'3 3.3
2016-Apr-29 12:34N 35°27' E 139°39'0 0.0
2016-Apr-29 11:34N 35°27' E 139°39'0 0.0
2016-Apr-29 10:34N 35°27' E 139°39'0 0.1
2016-Apr-29 09:34N 35°27' E 139°39'1 1.2
2016-Apr-29 08:34N 35°27' E 139°41'0 0.2
2016-Apr-29 07:34N 35°27' E 139°41'1 0.5
2016-Apr-29 06:34N 35°27' E 139°41'0 0.3
2016-Apr-29 05:34N 35°27' E 139°41'2 2.3
2016-Apr-29 04:33N 35°27' E 139°39'0 0.0
2016-Apr-29 03:33N 35°27' E 139°39'0 0.0
2016-Apr-29 02:33N 35°27' E 139°39'0 0.0
2016-Apr-29 01:34N 35°27' E 139°39'0 0.0
2016-Apr-29 00:34N 35°27' E 139°39'0 0.0
2016-Apr-28 23:34N 35°27' E 139°39'7 7.2
2016-Apr-28 22:34N 35°31' E 139°47'4 4.2
2016-Apr-28 21:34N 35°29' E 139°42'3 3.0
2016-Apr-28 20:34N 35°27' E 139°39'0 0.0
2016-Apr-28 07:05N 35°27' E 139°39'0 0.0
2016-Apr-28 06:33N 35°27' E 139°39'0 0.0
2016-Apr-28 05:33N 35°27' E 139°39'0 0.0
2016-Apr-28 04:33N 35°27' E 139°39'0 0.0
2016-Apr-28 03:33N 35°27' E 139°39'0 0.0
2016-Apr-28 02:33N 35°27' E 139°39'0 0.0
2016-Apr-28 01:33N 35°27' E 139°39'0 0.0
2016-Apr-28 00:33N 35°27' E 139°39'3 2.9
2016-Apr-27 23:33N 35°28' E 139°42'1 1.2
2016-Apr-27 22:33N 35°29' E 139°43'3 3.3
2016-Apr-27 21:33N 35°27' E 139°46'6 5.9
2016-Apr-27 20:33N 35°27' E 139°39'0 0.0
2016-Apr-27 07:15N 35°27' E 139°39'0 0.0
2016-Apr-27 06:33N 35°27' E 139°39'2 2.4
2016-Apr-27 05:34N 35°27' E 139°41'2 2.3
2016-Apr-27 04:33N 35°27' E 139°39'0 0.2
2016-Apr-27 03:33N 35°27' E 139°39'0 0.0
2016-Apr-27 02:33N 35°27' E 139°39'0 0.0
2016-Apr-27 01:33N 35°27' E 139°39'0 0.0
2016-Apr-27 00:33N 35°27' E 139°39'0 0.0
2016-Apr-26 23:33N 35°27' E 139°39'2 2.1
2016-Apr-26 22:33N 35°26' E 139°41'1 1.5
2016-Apr-26 21:33N 35°27' E 139°42'3 0.2
2016-Apr-26 06:33N 35°27' E 139°39'0 0.0
2016-Apr-26 05:33N 35°27' E 139°39'0 0.0
2016-Apr-26 04:33N 35°27' E 139°39'0 0.0
2016-Apr-26 03:33N 35°27' E 139°39'0 0.0
2016-Apr-26 02:33N 35°27' E 139°39'0 0.0
2016-Apr-26 01:33N 35°27' E 139°39'0 0.0
2016-Apr-26 00:33N 35°27' E 139°39'0 0.0
2016-Apr-25 23:33N 35°27' E 139°39'2 2.3
2016-Apr-25 22:33N 35°27' E 139°41'3 3.3
2016-Apr-25 21:33N 35°29' E 139°45'2 2.1
2016-Apr-25 20:33N 35°27' E 139°46'6 6.1
2016-Apr-25 19:33N 35°27' E 139°39'0 0.0
2016-Apr-25 18:33N 35°27' E 139°39'0 0.0
2016-Apr-25 17:33N 35°27' E 139°39'0 0.0
2016-Apr-25 16:33N 35°27' E 139°39'0 0.0
2016-Apr-25 15:33N 35°27' E 139°39'0 0.0
2016-Apr-25 14:33N 35°27' E 139°39'0 0.0
2016-Apr-25 13:33N 35°27' E 139°39'0 0.0
2016-Apr-25 12:33N 35°27' E 139°39'0 0.0
2016-Apr-25 11:33N 35°27' E 139°39'0 0.0
2016-Apr-25 10:33N 35°27' E 139°39'3 3.1
2016-Apr-25 09:33N 35°26' E 139°42'3 3.1
2016-Apr-25 08:33N 35°27' E 139°39'0 0.0
2016-Apr-25 07:33N 35°27' E 139°39'0 0.0
2016-Apr-25 06:33N 35°27' E 139°39'0 0.0
2016-Apr-25 05:33N 35°27' E 139°39'2 1.9
2016-Apr-25 04:33N 35°28' E 139°41'3 3.2
2016-Apr-25 03:33N 35°27' E 139°44'5 4.7
2016-Apr-25 02:33N 35°27' E 139°39'0 0.0
2016-Apr-25 01:33N 35°27' E 139°39'0 0.0
2016-Apr-25 00:33N 35°27' E 139°39'0 0.0
2016-Apr-24 23:33N 35°27' E 139°39'0 0.0
2016-Apr-24 22:33N 35°27' E 139°39'1 1.3
2016-Apr-24 21:33N 35°29' E 139°39'1 1.3
2016-Apr-24 20:33N 35°27' E 139°39'0 0.0
2016-Apr-24 07:10N 35°27' E 139°39'0 0.0
2016-Apr-24 06:33N 35°27' E 139°39'0 0.0
2016-Apr-24 05:33N 35°27' E 139°39'2 1.5
2016-Apr-24 04:33N 35°27' E 139°40'1 0.9
2016-Apr-24 03:33N 35°28' E 139°41'0 0.0
2016-Apr-24 02:33N 35°28' E 139°41'0 0.0
2016-Apr-24 01:33N 35°28' E 139°41'0 0.0
2016-Apr-24 00:33N 35°28' E 139°41'1 0.6
2016-Apr-23 23:33N 35°27' E 139°41'6 5.7
2016-Apr-23 22:33N 35°31' E 139°46'0 0.2
2016-Apr-23 21:34N 35°31' E 139°46'7 7.1
2016-Apr-23 20:34N 35°27' E 139°39'0 0.0
2016-Apr-23 07:15N 35°28' E 139°39'1 2.0
2016-Apr-23 06:33N 35°27' E 139°40'1 0.9
2016-Apr-23 05:33N 35°27' E 139°39'4 3.7
2016-Apr-23 04:33N 35°28' E 139°44'1 0.6
2016-Apr-23 03:33N 35°28' E 139°44'2 1.8
2016-Apr-23 02:33N 35°26' E 139°45'2 1.8
2016-Apr-23 01:33N 35°27' E 139°42'2 1.7
2016-Apr-23 00:33N 35°25' E 139°42'2 2.2
2016-Apr-22 23:33N 35°24' E 139°40'3 3.4
2016-Apr-22 22:33N 35°27' E 139°39'4 0.3
2016-Apr-22 07:34N 35°27' E 139°43'  

Dump ship's entire track history